Weather at Arusha Airport

Public forecast

Using degrees Celsius for public forecast. Weather courtesy of forecast.io.

Current aviation weather report (METAR) for Arusha Airport

Retrieved 2021/01/15 19:00 UTC (26 minutes ago):

HTAR 151900Z 36006KT 9999 FEW022 19/15 Q1018 NOSIG

Aviation forecast (TAF) for Arusha Airport

Forecast is more than 6 hours old.

Retrieved 2021/01/15 12:54 UTC (7 hours ago):

TAF HTAR 151100Z 1512/1612 12010KT 9999 BKN036 FEW038CB BECMG 1519/1523 00000KT SCT024